Collins, Iowa
Current Conditions -  °F | °C
As of 8:12 AM on Thursday 29 Jan 2015 (Local Time) from KAMW Reporting Station
Overcast Overcast  
Wind Chill: 20°   Ceiling: 1500
Heat Index: 33°   Visibility: 10mi
Dew Point: 27°   Wind: 25mph
Humidity: 78%   Direction: 330°NNW
Pressure: 30.14"   Gusts: 40mph
Location:  41.9°N, 93.31°W
Report Text: KAMW 291412Z AUTO 33022G35KT 10SM OVC015 01/M03 A3014 RMK AO2 PK WND 33035/1406 T00061028
Loading
Personal Weather Stations






























Interactive Weather Map New forecast layout! Learn more

10-Day Weather Forecast

Advertisements
Track Severe Weather on mobile